sensor_id;sensor_type;location;lat;lon;timestamp;P1;durP1;ratioP1;P2;durP2;ratioP2
70313;SDS011;57725;47.526;18.986;2022-11-04T00:01:46;20.45;;;12.52;;
70313;SDS011;57725;47.526;18.986;2022-11-04T00:04:15;21.25;;;12.80;;
70313;SDS011;57725;47.526;18.986;2022-11-04T00:06:42;16.90;;;11.65;;
70313;SDS011;57725;47.526;18.986;2022-11-04T00:09:08;19.23;;;11.57;;
70313;SDS011;57725;47.526;18.986;2022-11-04T00:11:36;21.23;;;12.50;;
70313;SDS011;57725;47.526;18.986;2022-11-04T00:14:22;16.55;;;11.48;;
70313;SDS011;57725;47.526;18.986;2022-11-04T00:16:48;20.80;;;11.80;;
70313;SDS011;57725;47.526;18.986;2022-11-04T00:19:32;17.65;;;11.80;;
70313;SDS011;57725;47.526;18.986;2022-11-04T00:22:17;21.10;;;12.05;;
70313;SDS011;57725;47.526;18.986;2022-11-04T00:25:01;18.88;;;12.30;;
70313;SDS011;57725;47.526;18.986;2022-11-04T00:28:09;19.88;;;11.93;;
70313;SDS011;57725;47.526;18.986;2022-11-04T00:30:56;19.80;;;12.40;;
70313;SDS011;57725;47.526;18.986;2022-11-04T00:33:42;19.67;;;12.63;;
70313;SDS011;57725;47.526;18.986;2022-11-04T00:36:07;17.67;;;11.65;;
70313;SDS011;57725;47.526;18.986;2022-11-04T00:38:33;18.20;;;12.73;;
70313;SDS011;57725;47.526;18.986;2022-11-04T00:40:58;20.30;;;12.48;;
70313;SDS011;57725;47.526;18.986;2022-11-04T00:43:26;19.23;;;11.38;;
70313;SDS011;57725;47.526;18.986;2022-11-04T00:45:51;19.63;;;12.35;;
70313;SDS011;57725;47.526;18.986;2022-11-04T00:48:19;18.55;;;12.13;;
70313;SDS011;57725;47.526;18.986;2022-11-04T00:50:47;21.40;;;12.18;;
70313;SDS011;57725;47.526;18.986;2022-11-04T00:53:15;21.90;;;13.10;;
70313;SDS011;57725;47.526;18.986;2022-11-04T00:55:42;20.77;;;11.82;;
70313;SDS011;57725;47.526;18.986;2022-11-04T00:58:10;18.35;;;11.27;;
70313;SDS011;57725;47.526;18.986;2022-11-04T01:00:36;18.23;;;11.95;;
70313;SDS011;57725;47.526;18.986;2022-11-04T01:03:04;17.48;;;11.68;;
70313;SDS011;57725;47.526;18.986;2022-11-04T01:05:32;19.42;;;11.32;;
70313;SDS011;57725;47.526;18.986;2022-11-04T01:08:00;19.17;;;11.57;;
70313;SDS011;57725;47.526;18.986;2022-11-04T01:10:25;16.17;;;10.93;;
70313;SDS011;57725;47.526;18.986;2022-11-04T01:12:51;20.33;;;12.20;;
70313;SDS011;57725;47.526;18.986;2022-11-04T01:15:16;17.33;;;11.38;;
70313;SDS011;57725;47.526;18.986;2022-11-04T01:17:42;18.95;;;11.52;;
70313;SDS011;57725;47.526;18.986;2022-11-04T01:20:10;17.02;;;10.90;;
70313;SDS011;57725;47.526;18.986;2022-11-04T01:22:37;17.77;;;12.07;;
70313;SDS011;57725;47.526;18.986;2022-11-04T01:25:03;17.70;;;11.38;;
70313;SDS011;57725;47.526;18.986;2022-11-04T01:27:31;18.05;;;11.18;;
70313;SDS011;57725;47.526;18.986;2022-11-04T01:29:56;17.40;;;11.15;;
70313;SDS011;57725;47.526;18.986;2022-11-04T01:32:22;17.23;;;11.52;;
70313;SDS011;57725;47.526;18.986;2022-11-04T01:34:47;20.38;;;11.63;;
70313;SDS011;57725;47.526;18.986;2022-11-04T01:37:12;16.92;;;11.10;;
70313;SDS011;57725;47.526;18.986;2022-11-04T01:39:38;18.58;;;10.70;;
70313;SDS011;57725;47.526;18.986;2022-11-04T01:42:05;16.88;;;10.90;;
70313;SDS011;57725;47.526;18.986;2022-11-04T01:50:22;18.38;;;11.85;;
70313;SDS011;57725;47.526;18.986;2022-11-04T01:55:38;18.15;;;10.88;;
70313;SDS011;57725;47.526;18.986;2022-11-04T01:58:11;16.45;;;11.52;;
70313;SDS011;57725;47.526;18.986;2022-11-04T02:00:44;16.48;;;10.57;;
70313;SDS011;57725;47.526;18.986;2022-11-04T02:03:11;16.00;;;10.80;;
70313;SDS011;57725;47.526;18.986;2022-11-04T02:05:41;16.73;;;10.93;;
70313;SDS011;57725;47.526;18.986;2022-11-04T02:08:08;17.30;;;11.05;;
70313;SDS011;57725;47.526;18.986;2022-11-04T02:10:36;16.10;;;10.50;;
70313;SDS011;57725;47.526;18.986;2022-11-04T02:13:05;15.10;;;10.38;;
70313;SDS011;57725;47.526;18.986;2022-11-04T02:18:51;17.13;;;10.70;;
70313;SDS011;57725;47.526;18.986;2022-11-04T02:30:12;19.75;;;10.73;;
70313;SDS011;57725;47.526;18.986;2022-11-04T02:35:24;19.17;;;10.85;;
70313;SDS011;57725;47.526;18.986;2022-11-04T02:38:02;18.88;;;10.95;;
70313;SDS011;57725;47.526;18.986;2022-11-04T02:43:48;15.38;;;10.32;;
70313;SDS011;57725;47.526;18.986;2022-11-04T02:48:56;17.23;;;10.85;;
70313;SDS011;57725;47.526;18.986;2022-11-04T02:56:26;20.02;;;12.05;;
70313;SDS011;57725;47.526;18.986;2022-11-04T02:58:54;16.83;;;11.32;;
70313;SDS011;57725;47.526;18.986;2022-11-04T03:01:24;18.77;;;11.20;;
70313;SDS011;57725;47.526;18.986;2022-11-04T03:03:59;17.10;;;10.95;;
70313;SDS011;57725;47.526;18.986;2022-11-04T03:06:28;16.88;;;11.07;;
70313;SDS011;57725;47.526;18.986;2022-11-04T03:08:59;17.48;;;11.57;;
70313;SDS011;57725;47.526;18.986;2022-11-04T03:11:26;18.35;;;10.85;;
70313;SDS011;57725;47.526;18.986;2022-11-04T03:21:58;17.40;;;9.85;;
70313;SDS011;57725;47.526;18.986;2022-11-04T03:24:27;17.90;;;11.30;;
70313;SDS011;57725;47.526;18.986;2022-11-04T03:27:02;18.40;;;11.45;;
70313;SDS011;57725;47.526;18.986;2022-11-04T03:29:32;18.95;;;11.60;;
70313;SDS011;57725;47.526;18.986;2022-11-04T03:32:12;18.33;;;11.10;;
70313;SDS011;57725;47.526;18.986;2022-11-04T03:34:45;17.02;;;11.23;;
70313;SDS011;57725;47.526;18.986;2022-11-04T03:37:20;19.63;;;11.70;;
70313;SDS011;57725;47.526;18.986;2022-11-04T03:39:54;17.73;;;11.07;;
70313;SDS011;57725;47.526;18.986;2022-11-04T03:42:22;17.85;;;11.60;;
70313;SDS011;57725;47.526;18.986;2022-11-04T03:44:52;19.10;;;11.73;;
70313;SDS011;57725;47.526;18.986;2022-11-04T03:47:21;18.55;;;12.02;;
70313;SDS011;57725;47.526;18.986;2022-11-04T03:49:50;16.10;;;11.38;;
70313;SDS011;57725;47.526;18.986;2022-11-04T03:52:19;16.80;;;10.38;;
70313;SDS011;57725;47.526;18.986;2022-11-04T03:54:45;19.20;;;11.80;;
70313;SDS011;57725;47.526;18.986;2022-11-04T03:57:17;16.52;;;10.90;;
70313;SDS011;57725;47.526;18.986;2022-11-04T04:02:40;19.48;;;12.07;;
70313;SDS011;57725;47.526;18.986;2022-11-04T04:08:18;19.30;;;12.27;;
70313;SDS011;57725;47.526;18.986;2022-11-04T04:11:03;19.50;;;11.82;;
70313;SDS011;57725;47.526;18.986;2022-11-04T04:14:21;18.25;;;11.32;;
70313;SDS011;57725;47.526;18.986;2022-11-04T04:17:03;18.20;;;11.10;;
70313;SDS011;57725;47.526;18.986;2022-11-04T04:19:51;20.30;;;12.52;;
70313;SDS011;57725;47.526;18.986;2022-11-04T04:22:27;18.07;;;11.43;;
70313;SDS011;57725;47.526;18.986;2022-11-04T04:25:00;18.98;;;11.82;;
70313;SDS011;57725;47.526;18.986;2022-11-04T04:27:51;20.55;;;11.50;;
70313;SDS011;57725;47.526;18.986;2022-11-04T04:30:19;17.02;;;11.13;;
70313;SDS011;57725;47.526;18.986;2022-11-04T04:33:04;20.55;;;12.07;;
70313;SDS011;57725;47.526;18.986;2022-11-04T04:35:33;17.63;;;11.18;;
70313;SDS011;57725;47.526;18.986;2022-11-04T04:38:16;19.02;;;11.98;;
70313;SDS011;57725;47.526;18.986;2022-11-04T04:41:11;20.45;;;11.80;;
70313;SDS011;57725;47.526;18.986;2022-11-04T04:43:59;22.83;;;12.82;;
70313;SDS011;57725;47.526;18.986;2022-11-04T04:46:44;19.73;;;11.88;;
70313;SDS011;57725;47.526;18.986;2022-11-04T04:49:18;21.73;;;12.05;;
70313;SDS011;57725;47.526;18.986;2022-11-04T04:51:46;20.45;;;12.23;;
70313;SDS011;57725;47.526;18.986;2022-11-04T04:54:14;19.50;;;13.02;;
70313;SDS011;57725;47.526;18.986;2022-11-04T04:56:39;20.13;;;11.60;;
70313;SDS011;57725;47.526;18.986;2022-11-04T04:59:07;17.67;;;11.52;;
70313;SDS011;57725;47.526;18.986;2022-11-04T05:01:33;18.98;;;12.48;;
70313;SDS011;57725;47.526;18.986;2022-11-04T05:04:00;18.40;;;12.15;;
70313;SDS011;57725;47.526;18.986;2022-11-04T05:06:28;19.33;;;12.50;;
70313;SDS011;57725;47.526;18.986;2022-11-04T05:08:56;19.60;;;12.27;;
70313;SDS011;57725;47.526;18.986;2022-11-04T05:11:22;19.95;;;12.15;;
70313;SDS011;57725;47.526;18.986;2022-11-04T05:13:49;18.75;;;12.80;;
70313;SDS011;57725;47.526;18.986;2022-11-04T05:16:15;19.30;;;12.77;;
70313;SDS011;57725;47.526;18.986;2022-11-04T05:18:43;19.90;;;11.93;;
70313;SDS011;57725;47.526;18.986;2022-11-04T05:21:10;19.50;;;12.82;;
70313;SDS011;57725;47.526;18.986;2022-11-04T05:23:39;19.80;;;12.60;;
70313;SDS011;57725;47.526;18.986;2022-11-04T05:26:04;20.85;;;12.85;;
70313;SDS011;57725;47.526;18.986;2022-11-04T05:28:30;22.33;;;13.27;;
70313;SDS011;57725;47.526;18.986;2022-11-04T05:31:01;20.33;;;13.35;;
70313;SDS011;57725;47.526;18.986;2022-11-04T05:33:38;23.60;;;13.45;;
70313;SDS011;57725;47.526;18.986;2022-11-04T05:38:48;19.23;;;12.80;;
70313;SDS011;57725;47.526;18.986;2022-11-04T05:41:23;20.40;;;13.07;;
70313;SDS011;57725;47.526;18.986;2022-11-04T05:43:52;21.75;;;13.40;;
70313;SDS011;57725;47.526;18.986;2022-11-04T05:46:19;21.52;;;12.90;;
70313;SDS011;57725;47.526;18.986;2022-11-04T05:48:44;21.25;;;13.27;;
70313;SDS011;57725;47.526;18.986;2022-11-04T05:51:16;21.70;;;13.27;;
70313;SDS011;57725;47.526;18.986;2022-11-04T05:53:43;20.00;;;12.65;;
70313;SDS011;57725;47.526;18.986;2022-11-04T05:56:09;20.75;;;12.70;;
70313;SDS011;57725;47.526;18.986;2022-11-04T05:58:37;23.08;;;13.93;;
70313;SDS011;57725;47.526;18.986;2022-11-04T06:03:46;21.00;;;13.32;;
70313;SDS011;57725;47.526;18.986;2022-11-04T06:06:12;23.42;;;13.40;;
70313;SDS011;57725;47.526;18.986;2022-11-04T06:08:39;22.75;;;14.50;;
70313;SDS011;57725;47.526;18.986;2022-11-04T06:11:07;21.58;;;13.25;;
70313;SDS011;57725;47.526;18.986;2022-11-04T06:13:33;25.15;;;14.35;;
70313;SDS011;57725;47.526;18.986;2022-11-04T06:16:00;22.55;;;14.35;;
70313;SDS011;57725;47.526;18.986;2022-11-04T06:18:29;22.60;;;14.00;;
70313;SDS011;57725;47.526;18.986;2022-11-04T06:21:07;24.70;;;14.63;;
70313;SDS011;57725;47.526;18.986;2022-11-04T06:23:42;23.08;;;14.63;;
70313;SDS011;57725;47.526;18.986;2022-11-04T06:26:14;24.17;;;14.85;;
70313;SDS011;57725;47.526;18.986;2022-11-04T06:28:40;24.40;;;15.30;;
70313;SDS011;57725;47.526;18.986;2022-11-04T06:31:09;23.02;;;14.35;;
70313;SDS011;57725;47.526;18.986;2022-11-04T06:33:36;24.75;;;14.93;;
70313;SDS011;57725;47.526;18.986;2022-11-04T06:36:02;24.77;;;15.07;;
70313;SDS011;57725;47.526;18.986;2022-11-04T06:38:32;30.30;;;17.30;;
70313;SDS011;57725;47.526;18.986;2022-11-04T06:41:00;23.08;;;15.57;;
70313;SDS011;57725;47.526;18.986;2022-11-04T06:43:27;24.25;;;15.93;;
70313;SDS011;57725;47.526;18.986;2022-11-04T06:45:56;24.15;;;16.02;;
70313;SDS011;57725;47.526;18.986;2022-11-04T06:48:26;27.10;;;15.97;;
70313;SDS011;57725;47.526;18.986;2022-11-04T06:50:58;25.58;;;16.50;;
70313;SDS011;57725;47.526;18.986;2022-11-04T06:53:25;24.45;;;15.75;;
70313;SDS011;57725;47.526;18.986;2022-11-04T06:55:51;25.05;;;15.25;;
70313;SDS011;57725;47.526;18.986;2022-11-04T06:58:25;29.17;;;17.10;;
70313;SDS011;57725;47.526;18.986;2022-11-04T07:00:51;23.58;;;15.65;;
70313;SDS011;57725;47.526;18.986;2022-11-04T07:03:17;27.77;;;16.88;;
70313;SDS011;57725;47.526;18.986;2022-11-04T07:05:42;26.38;;;16.17;;
70313;SDS011;57725;47.526;18.986;2022-11-04T07:08:10;28.83;;;17.42;;
70313;SDS011;57725;47.526;18.986;2022-11-04T07:10:38;27.02;;;17.30;;
70313;SDS011;57725;47.526;18.986;2022-11-04T07:13:06;28.15;;;17.85;;
70313;SDS011;57725;47.526;18.986;2022-11-04T07:15:31;26.58;;;16.40;;
70313;SDS011;57725;47.526;18.986;2022-11-04T07:17:59;26.00;;;16.20;;
70313;SDS011;57725;47.526;18.986;2022-11-04T07:20:27;26.40;;;16.65;;
70313;SDS011;57725;47.526;18.986;2022-11-04T07:22:53;26.77;;;16.33;;
70313;SDS011;57725;47.526;18.986;2022-11-04T07:25:19;25.58;;;16.42;;
70313;SDS011;57725;47.526;18.986;2022-11-04T07:27:44;26.92;;;17.00;;
70313;SDS011;57725;47.526;18.986;2022-11-04T07:30:10;28.35;;;17.27;;
70313;SDS011;57725;47.526;18.986;2022-11-04T07:32:35;26.63;;;17.10;;
70313;SDS011;57725;47.526;18.986;2022-11-04T07:35:00;26.08;;;17.38;;
70313;SDS011;57725;47.526;18.986;2022-11-04T07:37:26;28.35;;;18.15;;
70313;SDS011;57725;47.526;18.986;2022-11-04T07:39:53;29.83;;;17.83;;
70313;SDS011;57725;47.526;18.986;2022-11-04T07:42:19;27.25;;;17.98;;
70313;SDS011;57725;47.526;18.986;2022-11-04T07:44:46;28.10;;;16.60;;
70313;SDS011;57725;47.526;18.986;2022-11-04T07:47:14;28.80;;;17.75;;
70313;SDS011;57725;47.526;18.986;2022-11-04T07:49:42;29.48;;;17.92;;
70313;SDS011;57725;47.526;18.986;2022-11-04T07:52:08;28.60;;;18.27;;
70313;SDS011;57725;47.526;18.986;2022-11-04T07:54:33;29.20;;;18.05;;
70313;SDS011;57725;47.526;18.986;2022-11-04T07:57:01;24.35;;;16.55;;
70313;SDS011;57725;47.526;18.986;2022-11-04T07:59:27;27.67;;;17.35;;
70313;SDS011;57725;47.526;18.986;2022-11-04T08:01:52;29.65;;;17.67;;
70313;SDS011;57725;47.526;18.986;2022-11-04T08:04:18;30.05;;;17.55;;
70313;SDS011;57725;47.526;18.986;2022-11-04T08:06:43;26.75;;;17.13;;
70313;SDS011;57725;47.526;18.986;2022-11-04T08:09:11;28.67;;;17.88;;
70313;SDS011;57725;47.526;18.986;2022-11-04T08:11:39;30.50;;;18.60;;
70313;SDS011;57725;47.526;18.986;2022-11-04T08:14:13;30.23;;;18.70;;
70313;SDS011;57725;47.526;18.986;2022-11-04T08:16:39;33.67;;;17.92;;
70313;SDS011;57725;47.526;18.986;2022-11-04T08:19:04;31.15;;;18.85;;
70313;SDS011;57725;47.526;18.986;2022-11-04T08:21:30;29.70;;;17.65;;
70313;SDS011;57725;47.526;18.986;2022-11-04T08:23:57;31.30;;;19.48;;
70313;SDS011;57725;47.526;18.986;2022-11-04T08:26:22;30.67;;;19.70;;
70313;SDS011;57725;47.526;18.986;2022-11-04T08:28:48;29.58;;;19.20;;
70313;SDS011;57725;47.526;18.986;2022-11-04T08:31:16;31.10;;;18.55;;
70313;SDS011;57725;47.526;18.986;2022-11-04T08:33:49;29.77;;;18.52;;
70313;SDS011;57725;47.526;18.986;2022-11-04T08:36:18;31.75;;;19.45;;
70313;SDS011;57725;47.526;18.986;2022-11-04T08:38:45;30.40;;;18.70;;
70313;SDS011;57725;47.526;18.986;2022-11-04T08:41:12;31.65;;;19.15;;
70313;SDS011;57725;47.526;18.986;2022-11-04T08:43:40;31.45;;;18.75;;
70313;SDS011;57725;47.526;18.986;2022-11-04T08:46:08;28.58;;;17.95;;
70313;SDS011;57725;47.526;18.986;2022-11-04T08:48:35;32.22;;;20.17;;
70313;SDS011;57725;47.526;18.986;2022-11-04T08:51:05;30.42;;;18.65;;
70313;SDS011;57725;47.526;18.986;2022-11-04T08:53:35;32.70;;;19.90;;
70313;SDS011;57725;47.526;18.986;2022-11-04T08:56:08;31.70;;;19.45;;
70313;SDS011;57725;47.526;18.986;2022-11-04T08:58:49;29.15;;;18.08;;
70313;SDS011;57725;47.526;18.986;2022-11-04T09:01:15;32.42;;;18.73;;
70313;SDS011;57725;47.526;18.986;2022-11-04T09:03:44;29.52;;;18.67;;
70313;SDS011;57725;47.526;18.986;2022-11-04T09:06:18;29.88;;;18.60;;
70313;SDS011;57725;47.526;18.986;2022-11-04T09:08:48;32.92;;;19.23;;
70313;SDS011;57725;47.526;18.986;2022-11-04T09:11:16;28.15;;;18.17;;
70313;SDS011;57725;47.526;18.986;2022-11-04T09:13:42;31.35;;;20.33;;
70313;SDS011;57725;47.526;18.986;2022-11-04T09:16:09;32.90;;;19.13;;
70313;SDS011;57725;47.526;18.986;2022-11-04T09:18:36;32.63;;;20.42;;
70313;SDS011;57725;47.526;18.986;2022-11-04T09:21:02;29.98;;;18.65;;
70313;SDS011;57725;47.526;18.986;2022-11-04T09:23:32;32.67;;;19.10;;
70313;SDS011;57725;47.526;18.986;2022-11-04T09:25:57;30.80;;;19.63;;
70313;SDS011;57725;47.526;18.986;2022-11-04T09:28:28;33.05;;;20.50;;
70313;SDS011;57725;47.526;18.986;2022-11-04T09:30:53;34.80;;;19.58;;
70313;SDS011;57725;47.526;18.986;2022-11-04T09:33:18;29.73;;;19.05;;
70313;SDS011;57725;47.526;18.986;2022-11-04T09:35:53;30.45;;;18.50;;
70313;SDS011;57725;47.526;18.986;2022-11-04T09:38:20;31.05;;;19.80;;
70313;SDS011;57725;47.526;18.986;2022-11-04T09:40:45;30.65;;;19.63;;
70313;SDS011;57725;47.526;18.986;2022-11-04T09:43:24;33.72;;;20.48;;
70313;SDS011;57725;47.526;18.986;2022-11-04T09:46:00;30.77;;;20.25;;
70313;SDS011;57725;47.526;18.986;2022-11-04T09:48:34;29.35;;;18.85;;
70313;SDS011;57725;47.526;18.986;2022-11-04T09:51:08;32.08;;;19.77;;
70313;SDS011;57725;47.526;18.986;2022-11-04T09:53:41;31.27;;;20.10;;
70313;SDS011;57725;47.526;18.986;2022-11-04T09:58:37;32.70;;;20.38;;
70313;SDS011;57725;47.526;18.986;2022-11-04T10:01:14;30.67;;;19.90;;
70313;SDS011;57725;47.526;18.986;2022-11-04T10:22:31;30.67;;;19.23;;
70313;SDS011;57725;47.526;18.986;2022-11-04T10:25:15;34.30;;;20.65;;
70313;SDS011;57725;47.526;18.986;2022-11-04T10:27:54;31.00;;;20.30;;
70313;SDS011;57725;47.526;18.986;2022-11-04T10:30:24;33.38;;;21.52;;
70313;SDS011;57725;47.526;18.986;2022-11-04T10:35:41;33.90;;;21.20;;
70313;SDS011;57725;47.526;18.986;2022-11-04T10:40:51;30.38;;;20.67;;
70313;SDS011;57725;47.526;18.986;2022-11-04T10:43:30;29.02;;;20.48;;
70313;SDS011;57725;47.526;18.986;2022-11-04T10:51:44;33.72;;;21.33;;
70313;SDS011;57725;47.526;18.986;2022-11-04T10:54:10;33.80;;;21.75;;
70313;SDS011;57725;47.526;18.986;2022-11-04T10:56:40;32.90;;;20.98;;
70313;SDS011;57725;47.526;18.986;2022-11-04T11:02:06;32.63;;;21.10;;
70313;SDS011;57725;47.526;18.986;2022-11-04T11:04:35;36.95;;;22.50;;
70313;SDS011;57725;47.526;18.986;2022-11-04T11:07:03;32.42;;;21.48;;
70313;SDS011;57725;47.526;18.986;2022-11-04T11:14:36;29.85;;;20.55;;
70313;SDS011;57725;47.526;18.986;2022-11-04T11:17:21;31.75;;;21.33;;
70313;SDS011;57725;47.526;18.986;2022-11-04T11:20:05;33.53;;;21.60;;
70313;SDS011;57725;47.526;18.986;2022-11-04T11:22:49;31.83;;;21.55;;
70313;SDS011;57725;47.526;18.986;2022-11-04T11:27:59;32.50;;;21.83;;
70313;SDS011;57725;47.526;18.986;2022-11-04T11:30:32;31.85;;;21.73;;
70313;SDS011;57725;47.526;18.986;2022-11-04T11:33:07;33.78;;;22.13;;
70313;SDS011;57725;47.526;18.986;2022-11-04T11:35:52;32.92;;;21.33;;
70313;SDS011;57725;47.526;18.986;2022-11-04T11:38:24;35.15;;;22.52;;
70313;SDS011;57725;47.526;18.986;2022-11-04T11:40:52;36.13;;;22.33;;
70313;SDS011;57725;47.526;18.986;2022-11-04T11:43:30;34.38;;;22.20;;
70313;SDS011;57725;47.526;18.986;2022-11-04T11:45:59;34.67;;;22.08;;
70313;SDS011;57725;47.526;18.986;2022-11-04T11:48:32;32.88;;;20.80;;
70313;SDS011;57725;47.526;18.986;2022-11-04T11:50:58;36.10;;;23.55;;
70313;SDS011;57725;47.526;18.986;2022-11-04T11:53:29;35.05;;;23.42;;
70313;SDS011;57725;47.526;18.986;2022-11-04T11:55:58;33.13;;;21.58;;
70313;SDS011;57725;47.526;18.986;2022-11-04T11:58:48;35.10;;;21.85;;
70313;SDS011;57725;47.526;18.986;2022-11-04T12:01:17;30.95;;;21.15;;
70313;SDS011;57725;47.526;18.986;2022-11-04T12:03:48;32.47;;;22.42;;
70313;SDS011;57725;47.526;18.986;2022-11-04T12:11:51;37.47;;;23.38;;
70313;SDS011;57725;47.526;18.986;2022-11-04T12:23:12;32.63;;;22.23;;
70313;SDS011;57725;47.526;18.986;2022-11-04T12:28:44;35.28;;;22.50;;
70313;SDS011;57725;47.526;18.986;2022-11-04T12:34:08;37.80;;;24.67;;
70313;SDS011;57725;47.526;18.986;2022-11-04T12:44:43;35.65;;;23.08;;
70313;SDS011;57725;47.526;18.986;2022-11-04T12:47:34;37.72;;;24.55;;
70313;SDS011;57725;47.526;18.986;2022-11-04T12:50:15;37.13;;;23.45;;
70313;SDS011;57725;47.526;18.986;2022-11-04T12:53:06;36.33;;;23.52;;
70313;SDS011;57725;47.526;18.986;2022-11-04T13:01:44;37.20;;;24.67;;
70313;SDS011;57725;47.526;18.986;2022-11-04T13:04:12;35.70;;;22.67;;
70313;SDS011;57725;47.526;18.986;2022-11-04T13:07:03;31.80;;;21.83;;
70313;SDS011;57725;47.526;18.986;2022-11-04T13:09:36;36.58;;;23.25;;
70313;SDS011;57725;47.526;18.986;2022-11-04T13:12:13;34.38;;;22.65;;
70313;SDS011;57725;47.526;18.986;2022-11-04T13:14:46;32.33;;;23.02;;
70313;SDS011;57725;47.526;18.986;2022-11-04T13:17:16;34.90;;;22.90;;
70313;SDS011;57725;47.526;18.986;2022-11-04T13:19:50;34.97;;;23.50;;
70313;SDS011;57725;47.526;18.986;2022-11-04T13:22:20;35.13;;;22.55;;
70313;SDS011;57725;47.526;18.986;2022-11-04T13:24:53;37.38;;;24.88;;
70313;SDS011;57725;47.526;18.986;2022-11-04T13:32:47;34.03;;;23.25;;
70313;SDS011;57725;47.526;18.986;2022-11-04T13:38:27;37.13;;;24.77;;
70313;SDS011;57725;47.526;18.986;2022-11-04T13:43:54;35.08;;;24.17;;
70313;SDS011;57725;47.526;18.986;2022-11-04T13:46:26;37.00;;;24.40;;
70313;SDS011;57725;47.526;18.986;2022-11-04T13:49:04;36.60;;;24.42;;
70313;SDS011;57725;47.526;18.986;2022-11-04T13:54:05;34.60;;;24.35;;
70313;SDS011;57725;47.526;18.986;2022-11-04T13:56:51;37.67;;;25.17;;
70313;SDS011;57725;47.526;18.986;2022-11-04T13:59:28;37.83;;;24.88;;
70313;SDS011;57725;47.526;18.986;2022-11-04T14:04:44;33.78;;;23.48;;
70313;SDS011;57725;47.526;18.986;2022-11-04T14:07:11;36.67;;;24.50;;
70313;SDS011;57725;47.526;18.986;2022-11-04T14:14:47;36.67;;;23.98;;
70313;SDS011;57725;47.526;18.986;2022-11-04T14:18:25;36.50;;;23.65;;
70313;SDS011;57725;47.526;18.986;2022-11-04T14:25:42;32.30;;;22.60;;
70313;SDS011;57725;47.526;18.986;2022-11-04T14:30:35;35.53;;;24.40;;
70313;SDS011;57725;47.526;18.986;2022-11-04T14:35:44;39.40;;;24.85;;
70313;SDS011;57725;47.526;18.986;2022-11-04T14:43:37;37.30;;;25.40;;
70313;SDS011;57725;47.526;18.986;2022-11-04T14:46:06;35.33;;;24.98;;
70313;SDS011;57725;47.526;18.986;2022-11-04T14:48:33;37.28;;;24.48;;
70313;SDS011;57725;47.526;18.986;2022-11-04T14:50:59;36.58;;;25.13;;
70313;SDS011;57725;47.526;18.986;2022-11-04T14:53:30;34.72;;;24.60;;
70313;SDS011;57725;47.526;18.986;2022-11-04T14:56:04;35.20;;;24.13;;
70313;SDS011;57725;47.526;18.986;2022-11-04T14:58:50;35.00;;;24.30;;
70313;SDS011;57725;47.526;18.986;2022-11-04T15:01:32;37.20;;;24.02;;
70313;SDS011;57725;47.526;18.986;2022-11-04T15:04:11;36.05;;;23.58;;
70313;SDS011;57725;47.526;18.986;2022-11-04T15:06:40;34.42;;;24.67;;
70313;SDS011;57725;47.526;18.986;2022-11-04T15:09:20;34.40;;;23.60;;
70313;SDS011;57725;47.526;18.986;2022-11-04T15:14:54;35.42;;;24.45;;
70313;SDS011;57725;47.526;18.986;2022-11-04T15:17:24;33.17;;;22.88;;
70313;SDS011;57725;47.526;18.986;2022-11-04T15:19:53;33.03;;;22.80;;
70313;SDS011;57725;47.526;18.986;2022-11-04T15:22:21;33.35;;;22.73;;
70313;SDS011;57725;47.526;18.986;2022-11-04T15:24:47;34.22;;;23.63;;
70313;SDS011;57725;47.526;18.986;2022-11-04T15:27:16;36.70;;;23.75;;
70313;SDS011;57725;47.526;18.986;2022-11-04T15:33:11;35.80;;;25.08;;
70313;SDS011;57725;47.526;18.986;2022-11-04T15:35:41;35.60;;;24.02;;
70313;SDS011;57725;47.526;18.986;2022-11-04T15:38:08;30.80;;;23.30;;
70313;SDS011;57725;47.526;18.986;2022-11-04T15:40:36;33.38;;;23.45;;
70313;SDS011;57725;47.526;18.986;2022-11-04T15:43:05;35.20;;;25.38;;
70313;SDS011;57725;47.526;18.986;2022-11-04T15:50:45;34.42;;;24.08;;
70313;SDS011;57725;47.526;18.986;2022-11-04T15:53:13;32.63;;;23.90;;
70313;SDS011;57725;47.526;18.986;2022-11-04T15:55:43;35.47;;;24.27;;
70313;SDS011;57725;47.526;18.986;2022-11-04T15:58:14;32.90;;;23.58;;
70313;SDS011;57725;47.526;18.986;2022-11-04T16:00:49;35.40;;;23.60;;
70313;SDS011;57725;47.526;18.986;2022-11-04T16:03:21;31.08;;;22.08;;
70313;SDS011;57725;47.526;18.986;2022-11-04T16:05:59;33.00;;;23.08;;
70313;SDS011;57725;47.526;18.986;2022-11-04T16:08:31;32.05;;;23.90;;
70313;SDS011;57725;47.526;18.986;2022-11-04T16:13:42;34.17;;;23.55;;
70313;SDS011;57725;47.526;18.986;2022-11-04T16:16:26;35.35;;;24.73;;
70313;SDS011;57725;47.526;18.986;2022-11-04T16:18:52;36.45;;;23.58;;
70313;SDS011;57725;47.526;18.986;2022-11-04T16:21:23;34.08;;;23.45;;
70313;SDS011;57725;47.526;18.986;2022-11-04T16:24:05;33.63;;;22.05;;
70313;SDS011;57725;47.526;18.986;2022-11-04T16:26:36;33.47;;;23.70;;
70313;SDS011;57725;47.526;18.986;2022-11-04T16:29:16;36.33;;;24.50;;
70313;SDS011;57725;47.526;18.986;2022-11-04T16:31:45;31.75;;;22.17;;
70313;SDS011;57725;47.526;18.986;2022-11-04T16:34:11;33.28;;;23.35;;
70313;SDS011;57725;47.526;18.986;2022-11-04T16:36:40;33.50;;;22.75;;
70313;SDS011;57725;47.526;18.986;2022-11-04T16:39:08;34.53;;;23.85;;
70313;SDS011;57725;47.526;18.986;2022-11-04T16:41:37;34.55;;;24.30;;
70313;SDS011;57725;47.526;18.986;2022-11-04T16:44:04;32.65;;;22.10;;
70313;SDS011;57725;47.526;18.986;2022-11-04T16:46:38;31.13;;;22.27;;
70313;SDS011;57725;47.526;18.986;2022-11-04T16:49:04;34.13;;;22.92;;
70313;SDS011;57725;47.526;18.986;2022-11-04T16:51:30;31.63;;;23.20;;
70313;SDS011;57725;47.526;18.986;2022-11-04T16:53:57;33.25;;;22.73;;
70313;SDS011;57725;47.526;18.986;2022-11-04T16:56:23;31.95;;;22.83;;
70313;SDS011;57725;47.526;18.986;2022-11-04T16:58:54;29.35;;;21.95;;
70313;SDS011;57725;47.526;18.986;2022-11-04T17:01:19;31.05;;;21.63;;
70313;SDS011;57725;47.526;18.986;2022-11-04T17:03:47;31.13;;;22.08;;
70313;SDS011;57725;47.526;18.986;2022-11-04T17:06:14;34.63;;;23.08;;
70313;SDS011;57725;47.526;18.986;2022-11-04T17:08:40;32.90;;;22.50;;
70313;SDS011;57725;47.526;18.986;2022-11-04T17:11:11;34.65;;;22.83;;
70313;SDS011;57725;47.526;18.986;2022-11-04T17:13:37;29.15;;;21.08;;
70313;SDS011;57725;47.526;18.986;2022-11-04T17:16:06;32.92;;;22.52;;
70313;SDS011;57725;47.526;18.986;2022-11-04T17:18:36;33.10;;;23.65;;
70313;SDS011;57725;47.526;18.986;2022-11-04T17:21:06;28.40;;;21.17;;
70313;SDS011;57725;47.526;18.986;2022-11-04T17:23:32;30.55;;;21.50;;
70313;SDS011;57725;47.526;18.986;2022-11-04T17:26:00;29.50;;;20.55;;
70313;SDS011;57725;47.526;18.986;2022-11-04T17:28:25;29.77;;;21.77;;
70313;SDS011;57725;47.526;18.986;2022-11-04T17:30:53;30.65;;;21.48;;
70313;SDS011;57725;47.526;18.986;2022-11-04T17:33:21;30.67;;;22.02;;